Time;durP1;ratioP1;P1;durP2;ratioP2;P2;SDS_P1;SDS_P2;PMS_P1;PMS_P2;Temp;Humidity;BMP_temperature;BMP_pressure;BME280_temperature;BME280_humidity;BME280_pressure;Samples;Min_cycle;Max_cycle;Signal;HPM_P1;HPM_P2
2022/12/14 00:02:35;0.00;0.00;0.62;0.00;0.00;0.62;2.53;2.03;;;19.70;21.10;;;;;;2263198;61;20368;-70
2022/12/14 00:05:20;0.00;0.00;0.62;0.00;0.00;0.62;2.77;2.00;;;19.70;21.00;;;;;;2264214;61;20363;-67
2022/12/14 00:08:05;0.00;0.00;0.62;0.00;0.00;0.62;2.67;2.20;;;19.70;21.10;;;;;;2264204;61;20406;-69
2022/12/14 00:10:50;0.00;0.00;0.62;0.00;0.00;0.62;2.10;1.87;;;19.70;21.20;;;;;;2263155;61;20356;-66
2022/12/14 00:13:35;0.00;0.00;0.62;0.00;0.00;0.62;1.93;1.67;;;19.70;21.30;;;;;;2264126;61;20372;-68
2022/12/14 00:16:23;0.00;0.00;0.62;0.00;0.00;0.62;3.03;2.20;;;19.60;21.30;;;;;;2263704;61;20876;-63
2022/12/14 00:19:10;0.00;0.00;0.62;0.00;0.00;0.62;2.73;2.00;;;19.70;21.40;;;;;;2264499;61;20452;-72
2022/12/14 00:21:55;0.00;0.00;0.62;0.00;0.00;0.62;3.03;2.10;;;19.60;21.40;;;;;;2263923;61;20364;-68
2022/12/14 00:24:40;0.00;0.00;0.62;0.00;0.00;0.62;3.80;1.90;;;19.70;21.50;;;;;;2263049;61;20439;-69
2022/12/14 00:27:25;0.00;0.00;0.62;0.00;0.00;0.62;2.80;2.10;;;19.60;21.90;;;;;;2264070;61;20400;-69
2022/12/14 00:30:12;0.00;0.00;0.62;0.00;0.00;0.62;2.80;2.17;;;19.70;21.50;;;;;;2263768;61;20453;-64
2022/12/14 00:32:58;0.00;0.00;0.62;0.00;0.00;0.62;2.60;1.80;;;19.70;21.50;;;;;;2263081;61;20756;-62
2022/12/14 00:35:43;0.00;0.00;0.62;0.00;0.00;0.62;2.43;1.80;;;19.70;21.50;;;;;;2264130;61;20457;-64
2022/12/14 00:38:28;0.00;0.00;0.62;0.00;0.00;0.62;2.63;1.80;;;19.70;21.40;;;;;;2263701;61;20467;-64
2022/12/14 00:41:13;0.00;0.00;0.62;0.00;0.00;0.62;3.17;2.27;;;19.70;21.40;;;;;;2264193;61;20447;-64
2022/12/14 00:43:58;0.00;0.00;0.62;0.00;0.00;0.62;2.53;2.03;;;19.70;21.40;;;;;;2264131;61;20562;-63
2022/12/14 00:46:42;0.00;0.00;0.62;0.00;0.00;0.62;3.20;2.10;;;19.70;21.30;;;;;;2263095;61;20367;-64
2022/12/14 00:49:28;0.00;0.00;0.62;0.00;0.00;0.62;2.10;1.60;;;19.70;21.30;;;;;;2263975;61;20355;-64
2022/12/14 00:52:13;0.00;0.00;0.62;0.00;0.00;0.62;3.20;2.07;;;19.70;21.30;;;;;;2264125;61;20417;-62
2022/12/14 00:54:58;0.00;0.00;0.62;0.00;0.00;0.62;2.67;2.00;;;19.70;21.30;;;;;;2263114;61;20403;-64
2022/12/14 00:57:42;0.00;0.00;0.62;0.00;0.00;0.62;2.17;1.87;;;19.70;21.30;;;;;;2263975;61;20828;-63
2022/12/14 01:00:27;0.00;0.00;0.62;0.00;0.00;0.62;3.13;2.07;;;19.70;21.30;;;;;;2264119;61;20360;-64
2022/12/14 01:03:12;0.00;0.00;0.62;0.00;0.00;0.62;3.17;2.20;;;19.70;21.30;;;;;;2263803;61;20427;-62
2022/12/14 01:05:58;0.00;0.00;0.62;0.00;0.00;0.62;2.80;1.97;;;19.60;21.70;;;;;;2265827;61;20403;-65
2022/12/14 01:08:42;0.00;0.00;0.62;0.00;0.00;0.62;2.97;2.00;;;19.60;21.20;;;;;;2265143;61;20994;-71
2022/12/14 01:11:27;0.00;0.00;0.62;0.00;0.00;0.62;2.20;1.70;;;19.60;21.30;;;;;;2264945;61;20406;-69
2022/12/14 01:14:15;0.00;0.00;0.62;0.00;0.00;0.62;2.73;1.97;;;19.60;21.40;;;;;;2264838;61;20895;-69
2022/12/14 01:16:59;0.00;0.00;0.62;0.00;0.00;0.62;2.70;1.80;;;19.60;21.50;;;;;;2263569;61;20379;-69
2022/12/14 01:19:44;0.00;0.00;0.62;0.00;0.00;0.62;2.43;2.03;;;19.60;21.40;;;;;;2264872;61;20364;-67
2022/12/14 01:22:30;0.00;0.00;0.62;0.00;0.00;0.62;2.37;1.70;;;19.70;21.50;;;;;;2264722;61;20912;-68
2022/12/14 01:25:17;0.00;0.00;0.62;0.00;0.00;0.62;3.33;1.70;;;19.60;21.40;;;;;;2264290;61;20368;-69
2022/12/14 01:28:03;0.00;0.00;0.62;0.00;0.00;0.62;3.10;2.03;;;19.60;21.40;;;;;;2264826;61;20380;-69
2022/12/14 01:30:48;0.00;0.00;0.62;0.00;0.00;0.62;2.40;1.87;;;19.60;21.40;;;;;;2263687;61;20359;-69
2022/12/14 01:33:33;0.00;0.00;0.62;0.00;0.00;0.62;2.63;1.90;;;19.60;21.40;;;;;;2264684;61;20384;-70
2022/12/14 01:36:20;0.00;0.00;0.62;0.00;0.00;0.62;2.23;1.50;;;19.60;21.40;;;;;;2264683;61;20431;-69
2022/12/14 01:39:12;0.00;0.00;0.62;0.00;0.00;0.62;3.10;2.13;;;19.60;21.40;;;;;;2263685;61;20364;-69
2022/12/14 01:41:58;0.00;0.00;0.62;0.00;0.00;0.62;2.00;1.60;;;19.60;21.40;;;;;;2264750;61;20364;-69
2022/12/14 01:45:00;0.00;0.00;0.62;0.00;0.00;0.62;2.00;1.57;;;19.60;21.40;;;;;;2264620;61;20387;-67
2022/12/14 01:47:52;0.00;0.00;0.62;0.00;0.00;0.62;2.20;1.80;;;19.60;21.40;;;;;;2264440;61;20515;-69
2022/12/14 01:50:40;0.00;0.00;0.62;0.00;0.00;0.62;3.60;2.37;;;19.60;21.40;;;;;;2264815;61;20353;-67
2022/12/14 01:53:25;0.00;0.00;0.62;0.00;0.00;0.62;2.30;1.80;;;19.60;21.40;;;;;;2263692;61;20410;-70
2022/12/14 01:56:11;0.00;0.00;0.62;0.00;0.00;0.62;2.97;2.33;;;19.60;21.40;;;;;;2264427;61;20455;-69
2022/12/14 01:59:03;0.00;0.00;0.62;0.00;0.00;0.62;1.80;1.50;;;19.60;21.40;;;;;;2264620;61;20380;-67
2022/12/14 02:01:49;0.00;0.00;0.62;0.00;0.00;0.62;2.37;1.70;;;19.60;21.40;;;;;;2263671;61;20410;-68
2022/12/14 02:04:39;0.00;0.00;0.62;0.00;0.00;0.62;1.93;1.37;;;19.60;21.50;;;;;;2264620;61;20908;-67
2022/12/14 02:07:27;0.00;0.00;0.62;0.00;0.00;0.62;2.40;1.67;;;19.60;21.40;;;;;;2264115;61;20411;-68
2022/12/14 02:10:12;0.00;0.00;0.62;0.00;0.00;0.62;2.20;1.60;;;19.60;21.40;;;;;;2261507;61;20828;-68
2022/12/14 02:13:05;0.00;0.00;0.62;0.00;0.00;0.62;1.97;1.40;;;19.60;21.90;;;;;;2264513;61;20417;-67
2022/12/14 02:15:50;0.00;0.00;0.62;0.00;0.00;0.62;1.90;1.40;;;19.60;21.40;;;;;;2263387;61;20934;-68
2022/12/14 02:18:36;0.00;0.00;0.62;0.00;0.00;0.62;2.30;1.40;;;19.60;21.40;;;;;;2264677;61;20464;-70
2022/12/14 02:21:35;0.00;0.00;0.62;0.00;0.00;0.62;2.00;1.53;;;19.60;21.40;;;;;;2264679;61;20574;-69
2022/12/14 02:24:44;0.00;0.00;0.62;0.00;0.00;0.62;2.10;1.60;;;19.60;21.50;;;;;;2263775;61;20387;-70
2022/12/14 02:27:52;0.00;0.00;0.62;0.00;0.00;0.62;2.37;1.87;;;19.60;21.50;;;;;;2264498;61;20423;-70
2022/12/14 02:30:40;0.00;0.00;0.62;0.00;0.00;0.62;2.33;1.60;;;19.60;21.50;;;;;;2263597;61;20952;-68
2022/12/14 02:33:41;0.00;0.00;0.62;0.00;0.00;0.62;2.20;1.53;;;19.60;21.50;;;;;;2264749;61;20875;-70
2022/12/14 02:36:34;0.00;0.00;0.62;0.00;0.00;0.62;2.67;1.60;;;19.60;21.50;;;;;;2264412;61;20359;-66
2022/12/14 02:39:31;0.00;0.00;0.62;0.00;0.00;0.62;2.30;1.60;;;19.60;21.50;;;;;;2264345;61;20432;-67
2022/12/14 02:42:38;0.00;0.00;0.62;0.00;0.00;0.62;2.23;1.60;;;19.60;21.50;;;;;;2389320;55;20750;-69
2022/12/14 02:45:31;0.00;0.00;0.62;0.00;0.00;0.62;2.10;1.50;;;19.60;21.50;;;;;;2263603;61;20382;-67
2022/12/14 02:48:25;0.00;0.00;0.62;0.00;0.00;0.62;2.10;1.50;;;19.60;21.50;;;;;;2265715;61;20443;-67
2022/12/14 02:51:23;0.00;0.00;0.62;0.00;0.00;0.62;2.13;1.60;;;19.60;21.50;;;;;;2267207;61;20413;-66
2022/12/14 02:54:13;0.00;0.00;0.62;0.00;0.00;0.62;1.67;1.40;;;19.60;21.50;;;;;;2268495;61;20424;-67
2022/12/14 02:57:07;0.00;0.00;0.62;0.00;0.00;0.62;1.87;1.33;;;19.60;21.50;;;;;;2268465;61;20793;-68
2022/12/14 02:59:58;0.00;0.00;0.62;0.00;0.00;0.62;1.80;1.30;;;19.60;21.50;;;;;;2267807;61;20917;-67
2022/12/14 03:02:43;0.00;0.00;0.62;0.00;0.00;0.62;2.33;1.80;;;19.60;21.40;;;;;;2265045;61;20355;-68
2022/12/14 03:05:30;0.00;0.00;0.62;0.00;0.00;0.62;2.73;1.63;;;19.60;21.40;;;;;;2267159;61;21014;-68
2022/12/14 03:08:15;0.00;0.00;0.62;0.00;0.00;0.62;1.93;1.40;;;19.60;21.40;;;;;;2265344;61;20422;-68
2022/12/14 03:11:03;0.00;0.00;0.62;0.00;0.00;0.62;1.90;1.70;;;19.70;21.50;;;;;;2268413;61;20889;-68
2022/12/14 03:13:56;0.00;0.00;0.62;0.00;0.00;0.62;1.80;1.37;;;19.70;21.50;;;;;;2266787;61;20509;-68
2022/12/14 03:16:46;0.00;0.00;0.62;0.00;0.00;0.62;2.40;1.57;;;19.70;21.50;;;;;;2268514;61;20378;-68
2022/12/14 03:19:36;0.00;0.00;0.62;0.00;0.00;0.62;2.00;1.30;;;19.70;22.00;;;;;;2268101;61;20874;-67
2022/12/14 03:22:29;0.00;0.00;0.62;0.00;0.00;0.62;1.90;1.60;;;19.70;21.40;;;;;;2268210;61;20504;-68
2022/12/14 03:25:20;0.00;0.00;0.62;0.00;0.00;0.62;1.80;1.40;;;19.70;21.40;;;;;;2268335;61;20398;-67
2022/12/14 03:28:11;0.00;0.00;0.62;0.00;0.00;0.62;2.00;1.40;;;19.70;21.40;;;;;;2263866;61;20402;-68
2022/12/14 03:31:02;0.00;0.00;0.62;0.00;0.00;0.62;2.13;1.50;;;19.70;21.40;;;;;;2268510;61;20371;-68
2022/12/14 03:33:51;0.00;0.00;0.62;0.00;0.00;0.62;2.47;1.47;;;19.70;21.40;;;;;;2268277;61;20402;-68
2022/12/14 03:36:44;0.00;0.00;0.62;0.00;0.00;0.62;2.13;1.47;;;19.70;21.40;;;;;;2267486;61;20756;-68
2022/12/14 03:39:33;0.00;0.00;0.62;0.00;0.00;0.62;2.77;1.67;;;19.70;21.40;;;;;;2265312;61;20844;-68
2022/12/14 03:42:23;0.00;0.00;0.62;0.00;0.00;0.62;1.90;1.33;;;19.70;21.40;;;;;;2263743;61;20367;-68
2022/12/14 03:45:16;0.00;0.00;0.62;0.00;0.00;0.62;2.10;1.63;;;19.70;21.40;;;;;;2268278;61;20390;-68
2022/12/14 03:48:11;0.00;0.00;0.62;0.00;0.00;0.62;2.43;1.50;;;19.70;21.40;;;;;;2268442;61;20367;-68
2022/12/14 03:51:07;0.00;0.00;0.62;0.00;0.00;0.62;2.00;1.30;;;19.60;21.30;;;;;;2266978;61;20417;-68
2022/12/14 03:54:03;0.00;0.00;0.62;0.00;0.00;0.62;2.30;1.67;;;19.70;21.40;;;;;;2268171;61;20412;-68
2022/12/14 03:56:54;0.00;0.00;0.62;0.00;0.00;0.62;2.13;1.60;;;19.60;21.30;;;;;;2268129;61;20382;-68
2022/12/14 03:59:47;0.00;0.00;0.62;0.00;0.00;0.62;2.10;1.30;;;19.60;21.40;;;;;;2268297;61;20363;-68
2022/12/14 04:02:38;0.00;0.00;0.62;0.00;0.00;0.62;1.93;1.20;;;19.60;21.30;;;;;;2268338;61;20428;-67
2022/12/14 04:05:33;0.00;0.00;0.62;0.00;0.00;0.62;2.93;1.93;;;19.60;21.30;;;;;;2267186;61;20430;-67
2022/12/14 04:08:26;0.00;0.00;0.62;0.00;0.00;0.62;2.20;1.60;;;19.60;21.40;;;;;;2268397;61;20421;-67
2022/12/14 04:20:44;0.00;0.00;0.62;0.00;0.00;0.62;1.60;1.10;;;19.60;21.40;;;;;;2267117;61;20372;-68
2022/12/14 04:26:41;0.00;0.00;0.62;0.00;0.00;0.62;2.43;1.73;;;19.50;21.30;;;;;;2267153;61;20437;-68
2022/12/14 04:32:39;0.00;0.00;0.62;0.00;0.00;0.62;1.83;1.30;;;19.50;21.40;;;;;;2267926;61;20409;-68
2022/12/14 04:35:30;0.00;0.00;0.62;0.00;0.00;0.62;2.17;1.60;;;19.50;21.30;;;;;;2266999;61;20448;-68
2022/12/14 04:38:19;0.00;0.00;0.62;0.00;0.00;0.62;2.20;1.60;;;19.50;21.40;;;;;;2268516;61;20371;-68
2022/12/14 04:41:08;0.00;0.00;0.62;0.00;0.00;0.62;2.27;1.60;;;19.50;21.40;;;;;;2268435;61;20410;-67
2022/12/14 04:43:56;0.00;0.00;0.62;0.00;0.00;0.62;2.10;1.50;;;19.50;21.40;;;;;;2268780;61;20481;-67
2022/12/14 04:46:44;0.00;0.00;0.62;0.00;0.00;0.62;2.03;1.50;;;19.50;21.40;;;;;;2268914;61;20366;-68
2022/12/14 04:49:34;0.00;0.00;0.62;0.00;0.00;0.62;1.83;1.20;;;19.50;21.40;;;;;;2267779;61;20488;-68
2022/12/14 04:52:28;0.00;0.00;0.62;0.00;0.00;0.62;1.90;1.43;;;19.50;21.40;;;;;;2268735;61;20443;-68
2022/12/14 04:55:22;0.00;0.00;0.62;0.00;0.00;0.62;2.37;1.60;;;19.50;21.40;;;;;;2268899;61;20956;-68
2022/12/14 04:58:15;0.00;0.00;0.62;0.00;0.00;0.62;2.80;1.87;;;19.50;21.40;;;;;;2268124;61;20402;-67
2022/12/14 05:01:19;0.00;0.00;0.62;0.00;0.00;0.62;1.87;1.60;;;19.50;21.40;;;;;;2268938;61;20355;-67
2022/12/14 05:04:15;0.00;0.00;0.62;0.00;0.00;0.62;1.70;1.30;;;19.50;21.40;;;;;;2267347;61;20925;-67
2022/12/14 05:07:09;0.00;0.00;0.62;0.00;0.00;0.62;2.00;1.73;;;19.50;21.40;;;;;;2268914;61;20495;-68
2022/12/14 05:09:59;0.00;0.00;0.62;0.00;0.00;0.62;2.37;1.60;;;19.40;21.30;;;;;;2268991;61;20409;-68
2022/12/14 05:12:52;0.00;0.00;0.62;0.00;0.00;0.62;2.03;1.33;;;19.50;21.40;;;;;;2267502;61;20410;-67
2022/12/14 05:15:42;0.00;0.00;0.62;0.00;0.00;0.62;2.23;1.30;;;19.40;21.40;;;;;;2268753;61;20378;-68
2022/12/14 05:18:27;0.00;0.00;0.62;0.00;0.00;0.62;2.30;1.63;;;19.40;21.40;;;;;;2267534;61;20371;-67
2022/12/14 05:21:45;0.00;0.00;0.62;0.00;0.00;0.62;1.77;1.30;;;19.40;21.40;;;;;;2268711;61;20451;-67
2022/12/14 05:24:18;0.00;0.00;0.62;0.00;0.00;0.62;1.83;1.40;;;19.40;21.40;;;;;;2267468;61;20387;-68
2022/12/14 05:27:03;0.00;0.00;0.62;0.00;0.00;0.62;2.60;1.40;;;19.40;21.50;;;;;;2263594;61;20368;-67
2022/12/14 05:29:48;0.00;0.00;0.62;0.00;0.00;0.62;1.97;1.50;;;19.40;21.70;;;;;;2264780;61;20364;-68
2022/12/14 05:32:33;0.00;0.00;0.62;0.00;0.00;0.62;2.13;1.40;;;19.40;21.50;;;;;;2264375;61;20408;-68
2022/12/14 05:35:18;0.00;0.00;0.62;0.00;0.00;0.62;1.83;1.23;;;19.40;21.50;;;;;;2263954;61;20894;-67
2022/12/14 05:38:04;0.00;0.00;0.62;0.00;0.00;0.62;1.80;1.50;;;19.40;21.50;;;;;;2264786;61;20403;-67
2022/12/14 05:40:49;0.00;0.00;0.62;0.00;0.00;0.62;2.20;1.77;;;19.40;21.50;;;;;;2263553;61;20415;-67
2022/12/14 05:43:34;0.00;0.00;0.62;0.00;0.00;0.62;1.87;1.33;;;19.40;21.50;;;;;;2264356;61;20472;-68
2022/12/14 05:46:19;0.00;0.00;0.62;0.00;0.00;0.62;2.03;1.47;;;19.30;21.40;;;;;;2264788;61;20364;-67
2022/12/14 05:49:03;0.00;0.00;0.62;0.00;0.00;0.62;2.30;1.60;;;19.30;21.40;;;;;;2262961;61;20403;-67
2022/12/14 05:51:49;0.00;0.00;0.62;0.00;0.00;0.62;1.97;1.57;;;19.40;21.50;;;;;;2264480;61;20498;-67
2022/12/14 05:54:35;0.00;0.00;0.62;0.00;0.00;0.62;2.10;1.43;;;19.30;21.40;;;;;;2264540;61;20468;-68
2022/12/14 05:57:20;0.00;0.00;0.62;0.00;0.00;0.62;2.33;1.50;;;19.30;21.40;;;;;;2263920;61;20396;-67
2022/12/14 06:00:05;0.00;0.00;0.62;0.00;0.00;0.62;3.47;1.73;;;19.30;21.40;;;;;;2264489;61;20360;-67
2022/12/14 06:02:50;0.00;0.00;0.62;0.00;0.00;0.62;2.00;1.40;;;19.40;21.50;;;;;;2262818;61;20930;-68
2022/12/14 06:05:35;0.00;0.00;0.62;0.00;0.00;0.62;1.80;1.30;;;19.30;21.40;;;;;;2264718;61;20891;-67
2022/12/14 06:08:20;0.00;0.00;0.62;0.00;0.00;0.62;3.00;1.70;;;19.40;21.50;;;;;;2264617;61;20383;-67
2022/12/14 06:11:09;0.00;0.00;0.62;0.00;0.00;0.62;2.47;2.10;;;19.30;21.40;;;;;;2263217;61;20796;-68
2022/12/14 06:13:54;0.00;0.00;0.62;0.00;0.00;0.62;2.00;1.47;;;19.30;21.90;;;;;;2264513;61;20818;-67
2022/12/14 06:16:40;0.00;0.00;0.62;0.00;0.00;0.62;2.40;1.60;;;19.30;21.40;;;;;;2264652;61;20411;-68
2022/12/14 06:19:24;0.00;0.00;0.62;0.00;0.00;0.62;2.60;1.43;;;19.30;21.40;;;;;;2263735;61;20409;-68
2022/12/14 06:22:09;0.00;0.00;0.62;0.00;0.00;0.62;2.00;1.27;;;19.30;21.50;;;;;;2264285;61;20368;-67
2022/12/14 06:24:54;0.00;0.00;0.62;0.00;0.00;0.62;2.03;1.30;;;19.30;21.40;;;;;;2263932;61;20408;-68
2022/12/14 06:27:40;0.00;0.00;0.62;0.00;0.00;0.62;2.10;1.50;;;19.30;21.40;;;;;;2264545;61;20410;-68
2022/12/14 06:30:25;0.00;0.00;0.62;0.00;0.00;0.62;1.83;1.23;;;19.30;21.40;;;;;;2264621;61;20372;-69
2022/12/14 06:33:10;0.00;0.00;0.62;0.00;0.00;0.62;1.80;1.40;;;19.30;21.40;;;;;;2263322;61;20383;-69
2022/12/14 06:35:54;0.00;0.00;0.62;0.00;0.00;0.62;1.57;1.17;;;19.30;21.40;;;;;;2264607;61;20848;-67
2022/12/14 06:38:39;0.00;0.00;0.62;0.00;0.00;0.62;1.60;1.07;;;19.30;21.40;;;;;;2261185;61;20918;-68
2022/12/14 06:41:24;0.00;0.00;0.62;0.00;0.00;0.62;2.67;1.50;;;19.30;21.40;;;;;;2263424;61;20363;-67
2022/12/14 06:44:12;0.00;0.00;0.62;0.00;0.00;0.62;1.90;1.30;;;19.30;21.40;;;;;;2264261;61;20484;-67
2022/12/14 06:46:58;0.00;0.00;0.62;0.00;0.00;0.62;1.93;1.40;;;19.30;21.40;;;;;;2264182;61;20365;-67
2022/12/14 06:49:43;0.00;0.00;0.62;0.00;0.00;0.62;2.17;1.77;;;19.20;21.30;;;;;;2263942;61;20396;-67
2022/12/14 06:52:28;0.00;0.00;0.62;0.00;0.00;0.62;2.00;1.60;;;19.20;21.30;;;;;;2264338;61;20364;-66
2022/12/14 06:55:12;0.00;0.00;0.62;0.00;0.00;0.62;1.80;1.20;;;19.20;21.40;;;;;;2263368;61;20406;-66
2022/12/14 06:57:58;0.00;0.00;0.62;0.00;0.00;0.62;2.17;1.40;;;19.20;21.50;;;;;;2264501;61;20400;-66
2022/12/14 07:00:44;0.00;0.00;0.62;0.00;0.00;0.62;1.93;1.13;;;19.30;21.60;;;;;;2264218;61;20732;-66
2022/12/14 07:03:29;0.00;0.00;0.62;0.00;0.00;0.62;1.90;1.50;;;19.20;21.50;;;;;;2263300;61;20427;-66
2022/12/14 07:06:14;0.00;0.00;0.62;0.00;0.00;0.62;1.83;1.30;;;19.20;21.50;;;;;;2264449;61;20372;-66
2022/12/14 07:09:00;0.00;0.00;0.62;0.00;0.00;0.62;2.47;1.70;;;19.20;21.50;;;;;;2264026;61;20888;-66
2022/12/14 07:11:45;0.00;0.00;0.62;0.00;0.00;0.62;1.97;1.47;;;19.20;21.50;;;;;;2263899;61;20773;-66
2022/12/14 07:14:29;0.00;0.00;0.62;0.00;0.00;0.62;2.20;1.80;;;19.20;21.50;;;;;;2264501;61;20384;-68
2022/12/14 07:17:15;0.00;0.00;0.62;0.00;0.00;0.62;2.13;1.47;;;19.20;21.50;;;;;;2262835;61;20356;-66
2022/12/14 07:20:00;0.00;0.00;0.62;0.00;0.00;0.62;2.30;1.57;;;19.20;21.50;;;;;;2268248;61;20370;-65
2022/12/14 07:22:45;0.00;0.00;0.62;0.00;0.00;0.62;2.00;1.70;;;19.20;21.50;;;;;;2268331;61;20379;-65
2022/12/14 07:25:29;0.00;0.00;0.62;0.00;0.00;0.62;7.50;6.60;;;19.20;21.30;;;;;;2266960;61;20371;-66
2022/12/14 07:28:14;0.00;0.00;0.62;0.00;0.00;0.62;10.07;8.30;;;19.10;19.10;;;;;;2268451;61;20367;-66
2022/12/14 07:30:59;0.00;0.00;0.62;0.00;0.00;0.62;12.07;8.10;;;19.00;18.00;;;;;;2268241;61;20425;-66
2022/12/14 07:33:45;0.00;0.00;0.62;0.00;0.00;0.62;7.73;7.00;;;18.80;17.90;;;;;;2267431;61;20796;-64
2022/12/14 07:36:31;0.00;0.00;0.62;0.00;0.00;0.62;8.87;6.83;;;18.60;18.50;;;;;;2268448;61;20367;-63
2022/12/14 07:39:17;0.00;0.00;0.62;0.00;0.00;0.62;6.90;6.20;;;18.40;19.50;;;;;;2266870;61;20810;-62
2022/12/14 07:42:01;0.00;0.00;0.62;0.00;0.00;0.62;6.60;5.93;;;18.30;19.30;;;;;;2268315;61;20945;-65
2022/12/14 07:44:47;0.00;0.00;0.62;0.00;0.00;0.62;6.60;5.37;;;18.30;19.60;;;;;;2265045;61;20395;-63
2022/12/14 07:47:31;0.00;0.00;0.62;0.00;0.00;0.62;5.97;5.30;;;18.30;19.90;;;;;;2267051;61;20355;-63
2022/12/14 07:50:18;0.00;0.00;0.62;0.00;0.00;0.62;6.70;5.17;;;18.30;20.10;;;;;;2268286;61;20412;-66
2022/12/14 07:53:02;0.00;0.00;0.62;0.00;0.00;0.62;4.50;4.10;;;18.30;20.30;;;;;;2264876;61;20779;-64
2022/12/14 07:55:47;0.00;0.00;0.62;0.00;0.00;0.62;6.47;4.90;;;18.20;20.30;;;;;;2267261;61;20913;-64
2022/12/14 07:58:33;0.00;0.00;0.62;0.00;0.00;0.62;5.80;4.80;;;18.30;20.50;;;;;;2268219;61;20367;-62
2022/12/14 08:01:21;0.00;0.00;0.62;0.00;0.00;0.62;5.20;4.70;;;18.30;20.50;;;;;;2266971;61;20399;-66
2022/12/14 08:04:08;0.00;0.00;0.62;0.00;0.00;0.62;7.93;4.37;;;18.30;20.60;;;;;;2268039;61;20791;-63
2022/12/14 08:06:54;0.00;0.00;0.62;0.00;0.00;0.62;4.20;3.80;;;18.30;20.70;;;;;;2268280;61;20399;-64
2022/12/14 08:09:39;0.00;0.00;0.62;0.00;0.00;0.62;8.23;4.33;;;18.40;20.80;;;;;;2267037;61;20367;-65
2022/12/14 08:12:24;0.00;0.00;0.62;0.00;0.00;0.62;4.17;3.53;;;18.40;20.80;;;;;;2268139;61;20873;-66
2022/12/14 08:15:08;0.00;0.00;0.62;0.00;0.00;0.62;5.17;4.43;;;18.40;20.80;;;;;;2269002;61;20359;-67
2022/12/14 08:17:54;0.00;0.00;0.62;0.00;0.00;0.62;5.23;4.47;;;18.40;20.90;;;;;;2268085;61;20363;-71
2022/12/14 08:20:38;0.00;0.00;0.62;0.00;0.00;0.62;5.70;4.20;;;18.50;21.00;;;;;;2269045;61;20366;-67
2022/12/14 08:23:25;0.00;0.00;0.62;0.00;0.00;0.62;4.57;3.97;;;18.50;21.50;;;;;;2267950;61;20420;-67
2022/12/14 08:26:10;0.00;0.00;0.62;0.00;0.00;0.62;3.97;3.40;;;18.50;21.00;;;;;;2268990;61;20363;-67
2022/12/14 08:28:56;0.00;0.00;0.62;0.00;0.00;0.62;4.43;3.30;;;18.50;21.60;;;;;;2269018;61;20966;-66
2022/12/14 08:31:41;0.00;0.00;0.62;0.00;0.00;0.62;4.03;3.00;;;18.50;21.10;;;;;;2267846;61;20363;-66
2022/12/14 08:34:26;0.00;0.00;0.62;0.00;0.00;0.62;4.23;3.37;;;18.60;21.20;;;;;;2268587;61;20383;-64
2022/12/14 08:37:11;0.00;0.00;0.62;0.00;0.00;0.62;4.40;3.10;;;18.60;21.20;;;;;;2269061;61;20859;-65
2022/12/14 08:39:57;0.00;0.00;0.62;0.00;0.00;0.62;3.40;3.10;;;18.60;21.20;;;;;;2267724;61;20809;-65
2022/12/14 08:42:41;0.00;0.00;0.62;0.00;0.00;0.62;3.87;2.90;;;18.60;21.20;;;;;;2268794;61;20928;-67
2022/12/14 08:45:26;0.00;0.00;0.62;0.00;0.00;0.62;4.27;3.00;;;18.60;21.30;;;;;;2268532;61;20473;-68
2022/12/14 08:48:11;0.00;0.00;0.62;0.00;0.00;0.62;3.77;3.00;;;18.70;21.40;;;;;;2268991;61;20363;-68
2022/12/14 08:51:03;0.00;0.00;0.62;0.00;0.00;0.62;3.67;2.70;;;18.70;21.40;;;;;;2268647;61;20378;-64
2022/12/14 08:53:49;0.00;0.00;0.62;0.00;0.00;0.62;3.90;3.10;;;18.70;21.40;;;;;;2267759;61;20390;-63
2022/12/14 08:56:36;0.00;0.00;0.62;0.00;0.00;0.62;3.13;2.67;;;18.70;21.40;;;;;;2268930;61;20394;-64
2022/12/14 08:59:21;0.00;0.00;0.62;0.00;0.00;0.62;3.50;3.20;;;18.80;21.40;;;;;;2268792;61;20906;-66
2022/12/14 09:02:09;0.00;0.00;0.62;0.00;0.00;0.62;3.23;2.93;;;18.80;21.40;;;;;;2267723;61;20421;-63
2022/12/14 09:04:54;0.00;0.00;0.62;0.00;0.00;0.62;4.70;2.83;;;18.80;21.40;;;;;;2268333;61;20390;-65
2022/12/14 09:07:39;0.00;0.00;0.62;0.00;0.00;0.62;3.40;2.90;;;18.80;21.90;;;;;;2268242;61;20439;-67
2022/12/14 09:10:24;0.00;0.00;0.62;0.00;0.00;0.62;2.53;2.33;;;18.80;21.50;;;;;;2268891;61;20413;-65
2022/12/14 09:13:09;0.00;0.00;0.62;0.00;0.00;0.62;2.30;2.10;;;18.80;21.50;;;;;;2268037;61;20438;-62
2022/12/14 09:16:00;0.00;0.00;0.62;0.00;0.00;0.62;2.93;2.50;;;18.90;21.50;;;;;;2267409;61;20351;-65
2022/12/14 09:18:46;0.00;0.00;0.62;0.00;0.00;0.62;3.20;2.50;;;18.90;21.60;;;;;;2267857;61;20382;-63
2022/12/14 09:21:31;0.00;0.00;0.62;0.00;0.00;0.62;2.60;2.33;;;18.90;21.60;;;;;;2268838;61;20363;-62
2022/12/14 09:24:15;0.00;0.00;0.62;0.00;0.00;0.62;3.00;2.60;;;18.90;21.60;;;;;;2267359;61;20390;-63
2022/12/14 09:27:01;0.00;0.00;0.62;0.00;0.00;0.62;3.73;2.70;;;18.90;21.60;;;;;;2268201;61;20432;-63
2022/12/14 09:29:49;0.00;0.00;0.62;0.00;0.00;0.62;2.47;2.23;;;18.90;21.60;;;;;;2265017;61;20360;-64
2022/12/14 09:32:33;0.00;0.00;0.62;0.00;0.00;0.62;2.83;2.50;;;18.90;21.60;;;;;;2268724;61;20407;-66
2022/12/14 09:35:18;0.00;0.00;0.62;0.00;0.00;0.62;2.83;2.53;;;19.00;21.70;;;;;;2265632;61;20443;-65
2022/12/14 09:38:02;0.00;0.00;0.62;0.00;0.00;0.62;2.93;2.50;;;19.00;22.20;;;;;;2267719;61;20879;-66
2022/12/14 09:40:56;0.00;0.00;0.62;0.00;0.00;0.62;2.80;2.30;;;19.00;21.70;;;;;;2268684;61;20386;-62
2022/12/14 09:43:46;0.00;0.00;0.62;0.00;0.00;0.62;2.60;2.20;;;19.00;21.70;;;;;;2268611;61;20461;-62
2022/12/14 09:46:49;0.00;0.00;0.62;0.00;0.00;0.62;3.07;2.40;;;19.00;21.70;;;;;;2267506;61;20367;-65
2022/12/14 09:49:41;0.00;0.00;0.62;0.00;0.00;0.62;3.07;2.27;;;19.00;21.70;;;;;;2268519;61;20429;-61
2022/12/14 09:52:42;0.00;0.00;0.62;0.00;0.00;0.62;5.13;2.37;;;19.10;21.70;;;;;;2550236;45;20437;-65
2022/12/14 09:55:33;0.00;0.00;0.62;0.00;0.00;0.62;3.83;2.47;;;19.10;21.70;;;;;;2268646;61;20367;-63
2022/12/14 09:58:22;0.00;0.00;0.62;0.00;0.00;0.62;3.40;2.47;;;19.10;21.70;;;;;;2268636;61;20402;-64
2022/12/14 10:01:43;0.00;0.00;0.62;0.00;0.00;0.62;3.10;2.40;;;19.10;21.60;;;;;;2267585;61;20422;-66
2022/12/14 10:04:45;0.00;0.00;0.62;0.00;0.00;0.62;2.57;2.20;;;19.10;21.60;;;;;;2268087;61;20514;-68
2022/12/14 10:07:37;0.00;0.00;0.62;0.00;0.00;0.62;2.60;2.40;;;19.10;21.60;;;;;;2263938;61;20455;-64
2022/12/14 10:10:27;0.00;0.00;0.62;0.00;0.00;0.62;3.80;2.47;;;19.10;21.70;;;;;;2504859;53;20352;-63
2022/12/14 10:13:24;0.00;0.00;0.62;0.00;0.00;0.62;2.90;2.17;;;19.10;21.70;;;;;;2264478;61;20534;-64
2022/12/14 10:16:21;0.00;0.00;0.62;0.00;0.00;0.62;2.87;2.10;;;19.10;21.70;;;;;;2263534;61;20407;-65
2022/12/14 10:19:25;0.00;0.00;0.62;0.00;0.00;0.62;2.73;1.97;;;19.20;21.80;;;;;;2264672;61;20364;-64
2022/12/14 10:22:17;0.00;0.00;0.62;0.00;0.00;0.62;2.70;2.10;;;19.20;21.80;;;;;;2263751;61;20417;-64
2022/12/14 10:25:10;0.00;0.00;0.62;0.00;0.00;0.62;2.90;2.27;;;19.20;21.90;;;;;;2268617;61;20387;-62
2022/12/14 10:27:59;0.00;0.00;0.62;0.00;0.00;0.62;2.27;1.93;;;19.20;21.90;;;;;;2268640;61;20358;-62
2022/12/14 10:30:47;0.00;0.00;0.62;0.00;0.00;0.62;2.87;1.87;;;19.20;21.90;;;;;;2267511;61;20369;-66
2022/12/14 10:33:32;0.00;0.00;0.62;0.00;0.00;0.62;2.53;1.90;;;19.20;21.90;;;;;;2268419;61;20445;-64
2022/12/14 10:36:21;0.00;0.00;0.62;0.00;0.00;0.62;2.97;2.10;;;19.30;22.00;;;;;;2268122;61;20358;-64
2022/12/14 10:39:21;0.00;0.00;0.62;0.00;0.00;0.62;2.50;2.00;;;19.30;22.00;;;;;;2268532;61;20824;-63
2022/12/14 10:42:15;0.00;0.00;0.62;0.00;0.00;0.62;2.50;1.93;;;19.30;22.00;;;;;;2268603;61;20421;-64
2022/12/14 10:45:20;0.00;0.00;0.62;0.00;0.00;0.62;3.23;2.17;;;19.30;22.50;;;;;;2267373;61;20521;-65
2022/12/14 10:48:47;0.00;0.00;0.62;0.00;0.00;0.62;2.40;1.87;;;19.40;21.90;;;;;;2268606;61;20773;-64
2022/12/14 10:51:38;0.00;0.00;0.62;0.00;0.00;0.62;2.50;2.00;;;19.30;21.90;;;;;;2254109;61;20462;-65
2022/12/14 10:54:31;0.00;0.00;0.62;0.00;0.00;0.62;2.10;1.70;;;19.40;21.90;;;;;;2268032;61;20379;-63
2022/12/14 10:57:18;0.00;0.00;0.62;0.00;0.00;0.62;2.10;1.70;;;19.40;21.90;;;;;;2268605;61;20383;-65
2022/12/14 11:00:12;0.00;0.00;0.62;0.00;0.00;0.62;3.40;1.60;;;19.50;21.90;;;;;;2267483;61;20459;-64
2022/12/14 11:02:57;0.00;0.00;0.62;0.00;0.00;0.62;2.57;2.10;;;19.50;21.90;;;;;;2268377;61;20379;-65
2022/12/14 11:05:52;0.00;0.00;0.62;0.00;0.00;0.62;1.90;1.60;;;19.50;21.90;;;;;;2268272;61;20941;-65
2022/12/14 11:08:40;0.00;0.00;0.62;0.00;0.00;0.62;1.97;1.47;;;19.60;22.00;;;;;;2268120;61;20362;-63
2022/12/14 11:11:27;0.00;0.00;0.62;0.00;0.00;0.62;3.73;1.90;;;19.60;21.90;;;;;;2268614;61;20360;-66
2022/12/14 11:14:18;0.00;0.00;0.62;0.00;0.00;0.62;2.53;2.00;;;19.70;21.90;;;;;;2267145;61;20383;-64
2022/12/14 11:17:04;0.00;0.00;0.62;0.00;0.00;0.62;2.77;1.97;;;19.70;21.80;;;;;;2268613;61;20444;-67
2022/12/14 11:20:04;0.00;0.00;0.62;0.00;0.00;0.62;5.03;2.50;;;19.80;21.80;;;;;;2268412;61;20359;-63
2022/12/14 11:22:52;0.00;0.00;0.62;0.00;0.00;0.62;2.23;1.70;;;19.80;21.80;;;;;;2267550;61;20433;-63